Time,TemperatureF,DewpointF,PressureIn,WindDirection,WindDirectionDegrees,WindSpeedMPH,WindSpeedGustMPH,Humidity,HourlyPrecipIn,Conditions,Clouds,dailyrainin,SolarRadiationWatts/m^2,SoftwareType,DateUTC
2013-03-18 00:03:00,17.0,9.0,-100.00,East,96,1.0,3.0,70,0.00,,,0.00,0.000000,,2013-03-18 04:03:00,
2013-03-18 00:13:00,17.0,9.0,-100.00,East,96,1.0,3.0,70,0.00,,,0.00,0.000000,,2013-03-18 04:13:00,
2013-03-18 00:23:00,17.0,9.0,-100.00,East,96,1.0,3.0,70,0.00,,,0.00,0.000000,,2013-03-18 04:23:00,
2013-03-18 00:53:00,15.0,9.0,-100.00,East,86,0.0,2.0,75,0.00,,,0.00,0.000000,,2013-03-18 04:53:00,
2013-03-18 01:03:00,15.0,9.0,-100.00,East,86,0.0,2.0,75,0.00,,,0.00,0.000000,,2013-03-18 05:03:00,
2013-03-18 01:12:00,15.0,9.0,-100.00,East,86,0.0,2.0,75,0.00,,,0.00,0.000000,,2013-03-18 05:12:00,
2013-03-18 01:22:00,15.0,9.0,-100.00,East,86,0.0,2.0,75,0.00,,,0.00,0.000000,,2013-03-18 05:22:00,
2013-03-18 01:52:00,14.0,9.0,-100.00,SE,135,3.0,3.0,81,0.00,,,0.00,0.000000,,2013-03-18 05:52:00,
2013-03-18 02:02:00,14.0,9.0,-100.00,SE,135,3.0,3.0,81,0.00,,,0.00,0.000000,,2013-03-18 06:02:00,
2013-03-18 02:12:00,14.0,9.0,-100.00,SE,135,3.0,3.0,81,0.00,,,0.00,0.000000,,2013-03-18 06:12:00,
2013-03-18 02:22:00,14.0,9.0,-100.00,SE,135,3.0,3.0,81,0.00,,,0.00,0.000000,,2013-03-18 06:22:00,
2013-03-18 02:53:00,16.0,9.0,-100.00,East,99,3.0,5.0,72,0.00,,,0.00,0.000000,,2013-03-18 06:53:00,
2013-03-18 03:02:00,16.0,9.0,-100.00,East,99,3.0,5.0,72,0.00,,,0.00,0.000000,,2013-03-18 07:02:00,
2013-03-18 03:13:00,16.0,9.0,-100.00,East,99,3.0,5.0,72,0.00,,,0.00,0.000000,,2013-03-18 07:13:00,
2013-03-18 03:23:00,16.0,9.0,-100.00,East,99,3.0,5.0,72,0.00,,,0.00,0.000000,,2013-03-18 07:23:00,
2013-03-18 03:53:00,16.0,7.0,-100.00,SE,128,4.0,7.0,67,0.00,,,0.00,0.000000,,2013-03-18 07:53:00,
2013-03-18 04:02:00,16.0,7.0,-100.00,SE,128,4.0,7.0,67,0.00,,,0.00,0.000000,,2013-03-18 08:02:00,
2013-03-18 04:12:00,16.0,7.0,-100.00,SE,128,4.0,7.0,67,0.00,,,0.00,0.000000,,2013-03-18 08:12:00,
2013-03-18 04:22:00,16.0,7.0,-100.00,SE,128,4.0,7.0,67,0.00,,,0.00,0.000000,,2013-03-18 08:22:00,
2013-03-18 04:53:00,17.0,7.0,-100.00,East,89,2.0,6.0,63,0.00,,,0.00,0.000000,,2013-03-18 08:53:00,
2013-03-18 05:02:00,17.0,7.0,-100.00,East,89,2.0,6.0,63,0.00,,,0.00,0.000000,,2013-03-18 09:02:00,
2013-03-18 05:13:00,17.0,7.0,-100.00,East,89,2.0,6.0,63,0.00,,,0.00,0.000000,,2013-03-18 09:13:00,
2013-03-18 05:22:00,17.0,7.0,-100.00,East,89,2.0,6.0,63,0.00,,,0.00,0.000000,,2013-03-18 09:22:00,
2013-03-18 05:53:00,18.0,8.0,-100.00,ESE,107,5.0,9.0,63,0.00,,,0.00,0.000000,,2013-03-18 09:53:00,
2013-03-18 06:04:00,18.0,8.0,-100.00,ESE,107,5.0,9.0,63,0.00,,,0.00,0.000000,,2013-03-18 10:04:00,
2013-03-18 06:13:00,18.0,8.0,-100.00,ESE,107,5.0,9.0,63,0.00,,,0.00,0.000000,,2013-03-18 10:13:00,
2013-03-18 06:23:00,18.0,8.0,-100.00,ESE,107,5.0,9.0,63,0.00,,,0.00,0.000000,,2013-03-18 10:23:00,
2013-03-18 06:53:00,19.0,10.0,-100.00,ESE,113,7.0,9.0,67,0.00,,,0.00,0.000000,,2013-03-18 10:53:00,
2013-03-18 07:03:00,19.0,10.0,-100.00,ESE,113,7.0,9.0,67,0.00,,,0.00,0.000000,,2013-03-18 11:03:00,
2013-03-18 07:13:00,19.0,10.0,-100.00,ESE,113,7.0,9.0,67,0.00,,,0.00,0.000000,,2013-03-18 11:13:00,
2013-03-18 07:22:00,19.0,10.0,-100.00,ESE,113,7.0,9.0,67,0.00,,,0.00,0.000000,,2013-03-18 11:22:00,
2013-03-18 07:53:00,21.0,11.0,-100.00,ESE,116,8.0,12.0,66,0.00,,,0.00,0.000000,,2013-03-18 11:53:00,
2013-03-18 08:03:00,21.0,11.0,-100.00,ESE,116,8.0,12.0,66,0.00,,,0.00,0.000000,,2013-03-18 12:03:00,
2013-03-18 08:13:00,21.0,11.0,-100.00,ESE,116,8.0,12.0,66,0.00,,,0.00,0.000000,,2013-03-18 12:13:00,
2013-03-18 08:22:00,21.0,11.0,-100.00,ESE,116,8.0,12.0,66,0.00,,,0.00,0.000000,,2013-03-18 12:22:00,
2013-03-18 08:52:00,22.0,12.0,-100.00,East,99,7.0,14.0,65,0.00,,,0.00,34.000000,,2013-03-18 12:52:00,
2013-03-18 09:03:00,22.0,12.0,-100.00,East,99,7.0,14.0,65,0.00,,,0.00,34.000000,,2013-03-18 13:03:00,
2013-03-18 09:12:00,22.0,12.0,-100.00,East,99,7.0,14.0,65,0.00,,,0.00,34.000000,,2013-03-18 13:12:00,
2013-03-18 09:22:00,22.0,12.0,-100.00,East,99,7.0,14.0,65,0.00,,,0.00,34.000000,,2013-03-18 13:22:00,
2013-03-18 09:52:00,24.0,12.0,-100.00,ESE,109,13.0,21.0,60,0.00,,,0.00,134.000000,,2013-03-18 13:52:00,
2013-03-18 10:03:00,24.0,12.0,-100.00,ESE,109,13.0,21.0,60,0.00,,,0.00,134.000000,,2013-03-18 14:03:00,
2013-03-18 10:12:00,24.0,12.0,-100.00,ESE,109,13.0,21.0,60,0.00,,,0.00,134.000000,,2013-03-18 14:12:00,
2013-03-18 10:22:00,24.0,12.0,-100.00,ESE,109,13.0,21.0,60,0.00,,,0.00,134.000000,,2013-03-18 14:22:00,
2013-03-18 10:52:00,26.0,13.0,-100.00,ESE,109,11.0,23.0,57,0.00,,,0.00,225.000000,,2013-03-18 14:52:00,
2013-03-18 11:02:00,26.0,13.0,-100.00,ESE,109,11.0,23.0,57,0.00,,,0.00,225.000000,,2013-03-18 15:02:00,
2013-03-18 11:12:00,26.0,13.0,-100.00,ESE,109,11.0,23.0,57,0.00,,,0.00,225.000000,,2013-03-18 15:12:00,
2013-03-18 11:22:00,26.0,13.0,-100.00,ESE,109,11.0,23.0,57,0.00,,,0.00,225.000000,,2013-03-18 15:22:00,
2013-03-18 11:52:00,28.0,12.0,-100.00,ESE,104,10.0,22.0,51,0.00,,,0.00,270.000000,,2013-03-18 15:52:00,
2013-03-18 12:03:00,28.0,12.0,-100.00,ESE,104,10.0,22.0,51,0.00,,,0.00,270.000000,,2013-03-18 16:03:00,
2013-03-18 12:12:00,28.0,12.0,-100.00,ESE,104,10.0,22.0,51,0.00,,,0.00,270.000000,,2013-03-18 16:12:00,
2013-03-18 12:23:00,28.0,12.0,-100.00,ESE,104,10.0,22.0,51,0.00,,,0.00,270.000000,,2013-03-18 16:23:00,
2013-03-18 12:53:00,30.0,10.0,-100.00,ESE,110,14.0,26.0,42,0.00,,,0.00,277.000000,,2013-03-18 16:53:00,
2013-03-18 13:03:00,30.0,10.0,-100.00,ESE,110,14.0,26.0,42,0.00,,,0.00,277.000000,,2013-03-18 17:03:00,
2013-03-18 13:12:00,30.0,10.0,-100.00,ESE,110,14.0,26.0,42,0.00,,,0.00,277.000000,,2013-03-18 17:12:00,
2013-03-18 13:22:00,30.0,10.0,-100.00,ESE,110,14.0,26.0,42,0.00,,,0.00,277.000000,,2013-03-18 17:22:00,
2013-03-18 13:52:00,31.0,11.0,-100.00,ESE,109,10.0,21.0,42,0.00,,,0.00,227.000000,,2013-03-18 17:52:00,
2013-03-18 14:02:00,31.0,11.0,-100.00,ESE,109,10.0,21.0,42,0.00,,,0.00,227.000000,,2013-03-18 18:02:00,
2013-03-18 14:12:00,31.0,11.0,-100.00,ESE,109,10.0,21.0,42,0.00,,,0.00,227.000000,,2013-03-18 18:12:00,
2013-03-18 14:22:00,31.0,11.0,-100.00,ESE,109,10.0,21.0,42,0.00,,,0.00,227.000000,,2013-03-18 18:22:00,
2013-03-18 14:52:00,33.0,11.0,-100.00,ESE,117,16.0,23.0,39,0.00,,,0.00,141.000000,,2013-03-18 18:52:00,
2013-03-18 15:03:00,33.0,11.0,-100.00,ESE,117,16.0,23.0,39,0.00,,,0.00,141.000000,,2013-03-18 19:03:00,
2013-03-18 15:12:00,33.0,11.0,-100.00,ESE,117,16.0,23.0,39,0.00,,,0.00,141.000000,,2013-03-18 19:12:00,
2013-03-18 15:22:00,33.0,11.0,-100.00,ESE,117,16.0,23.0,39,0.00,,,0.00,141.000000,,2013-03-18 19:22:00,
2013-03-18 15:52:00,31.0,22.0,-100.00,ESE,120,18.0,26.0,68,0.00,,,0.00,108.000000,,2013-03-18 19:52:00,
2013-03-18 16:03:00,31.0,22.0,-100.00,ESE,120,18.0,26.0,68,0.00,,,0.00,108.000000,,2013-03-18 20:03:00,
2013-03-18 16:12:00,31.0,22.0,-100.00,ESE,120,18.0,26.0,68,0.00,,,0.00,108.000000,,2013-03-18 20:12:00,
2013-03-18 16:23:00,31.0,22.0,-100.00,ESE,120,18.0,26.0,68,0.00,,,0.00,108.000000,,2013-03-18 20:23:00,
2013-03-18 16:53:00,28.0,26.0,-100.00,SE,125,15.0,29.0,92,0.00,,,0.00,103.000000,,2013-03-18 20:53:00,
2013-03-18 17:02:00,28.0,26.0,-100.00,SE,125,15.0,29.0,92,0.00,,,0.00,103.000000,,2013-03-18 21:02:00,
2013-03-18 17:12:00,28.0,26.0,-100.00,SE,125,15.0,29.0,92,0.00,,,0.00,103.000000,,2013-03-18 21:12:00,
2013-03-18 17:22:00,28.0,26.0,-100.00,SE,125,15.0,29.0,92,0.00,,,0.00,103.000000,,2013-03-18 21:22:00,
2013-03-18 17:53:00,28.0,25.0,-100.00,SE,127,17.0,28.0,90,0.00,,,0.00,70.000000,,2013-03-18 21:53:00,
2013-03-18 18:03:00,28.0,25.0,-100.00,SE,127,17.0,28.0,90,0.00,,,0.00,70.000000,,2013-03-18 22:03:00,
2013-03-18 18:13:00,28.0,25.0,-100.00,SE,127,17.0,28.0,90,0.00,,,0.00,70.000000,,2013-03-18 22:13:00,
2013-03-18 18:23:00,28.0,25.0,-100.00,SE,127,17.0,28.0,90,0.00,,,0.00,70.000000,,2013-03-18 22:23:00,
2013-03-18 18:53:00,29.0,24.0,-100.00,SE,131,9.0,32.0,82,0.00,,,0.00,39.000000,,2013-03-18 22:53:00,
2013-03-18 19:03:00,29.0,24.0,-100.00,SE,131,9.0,32.0,82,0.00,,,0.00,39.000000,,2013-03-18 23:03:00,
2013-03-18 19:13:00,29.0,24.0,-100.00,SE,131,9.0,32.0,82,0.00,,,0.00,39.000000,,2013-03-18 23:13:00,
2013-03-18 19:23:00,29.0,24.0,-100.00,SE,131,9.0,32.0,82,0.00,,,0.00,39.000000,,2013-03-18 23:23:00,
2013-03-18 19:53:00,30.0,23.0,-100.00,SE,124,9.0,18.0,76,0.00,,,0.00,4.000000,,2013-03-18 23:53:00,
2013-03-18 20:03:00,30.0,23.0,-100.00,SE,124,9.0,18.0,76,0.00,,,0.00,4.000000,,2013-03-19 00:03:00,
2013-03-18 20:12:00,30.0,23.0,-100.00,SE,124,9.0,18.0,76,0.00,,,0.00,4.000000,,2013-03-19 00:12:00,
2013-03-18 20:23:00,30.0,23.0,-100.00,SE,124,9.0,18.0,76,0.00,,,0.00,4.000000,,2013-03-19 00:23:00,
2013-03-18 20:52:00,30.0,27.0,-100.00,ESE,122,9.0,14.0,89,0.00,,,0.00,0.000000,,2013-03-19 00:52:00,
2013-03-18 21:02:00,30.0,27.0,-100.00,ESE,122,9.0,14.0,89,0.00,,,0.00,0.000000,,2013-03-19 01:02:00,
2013-03-18 21:12:00,30.0,27.0,-100.00,ESE,122,9.0,14.0,89,0.00,,,0.00,0.000000,,2013-03-19 01:12:00,
2013-03-18 21:22:00,30.0,27.0,-100.00,ESE,122,9.0,14.0,89,0.00,,,0.00,0.000000,,2013-03-19 01:22:00,
2013-03-18 21:53:00,30.0,28.0,-100.00,SE,124,11.0,17.0,91,0.00,,,0.00,0.000000,,2013-03-19 01:53:00,
2013-03-18 22:03:00,30.0,28.0,-100.00,SE,124,11.0,17.0,91,0.00,,,0.00,0.000000,,2013-03-19 02:03:00,
2013-03-18 22:13:00,30.0,28.0,-100.00,SE,124,11.0,17.0,91,0.00,,,0.00,0.000000,,2013-03-19 02:13:00,
2013-03-18 22:23:00,30.0,28.0,-100.00,SE,124,11.0,17.0,91,0.00,,,0.00,0.000000,,2013-03-19 02:23:00,
2013-03-18 22:53:00,32.0,29.0,-100.00,SE,132,8.0,17.0,90,0.00,,,0.00,0.000000,,2013-03-19 02:53:00,
2013-03-18 23:02:00,32.0,29.0,-100.00,SE,132,8.0,17.0,90,0.00,,,0.00,0.000000,,2013-03-19 03:02:00,
2013-03-18 23:13:00,32.0,29.0,-100.00,SE,132,8.0,17.0,90,0.00,,,0.00,0.000000,,2013-03-19 03:13:00,
2013-03-18 23:22:00,32.0,29.0,-100.00,SE,132,8.0,17.0,90,0.00,,,0.00,0.000000,,2013-03-19 03:22:00,
2013-03-18 23:54:00,34.0,30.0,-100.00,SE,136,7.0,15.0,84,0.00,,,0.00,0.000000,,2013-03-19 03:54:00,